Time;durP1;ratioP1;P1;durP2;ratioP2;P2;SDS_P1;SDS_P2;PMS_P1;PMS_P2;Temp;Humidity;BMP_temperature;BMP_pressure;BME280_temperature;BME280_humidity;BME280_pressure;Samples;Min_cycle;Max_cycle;Signal;HPM_P1;HPM_P2
2022/01/16 00:01:38;;;;;;;2.62;0.60;;;;;;;1.45;100.00;99667.06;1755984;82;21506;-63
2022/01/16 00:04:07;;;;;;;3.67;0.72;;;;;;;1.40;100.00;99662.88;1751687;80;21074;-64
2022/01/16 00:06:34;;;;;;;2.52;0.57;;;;;;;1.40;100.00;99664.22;1756611;82;20981;-64
2022/01/16 00:09:01;;;;;;;2.65;0.68;;;;;;;1.38;100.00;99662.25;1756177;80;21096;-65
2022/01/16 00:11:28;;;;;;;3.55;0.60;;;;;;;1.38;100.00;99656.89;1756805;82;20947;-64
2022/01/16 00:13:54;;;;;;;2.45;0.88;;;;;;;1.38;100.00;99673.53;1756457;80;21030;-64
2022/01/16 00:16:21;;;;;;;;;;;;;;;1.35;100.00;99668.05;1759000;82;21370;-64
2022/01/16 00:18:52;;;;;;;2.70;0.60;;;;;;;1.36;100.00;99677.75;1754608;80;20134;-64
2022/01/16 00:21:20;;;;;;;1.50;0.47;;;;;;;1.31;100.00;99674.08;1740092;81;21073;-65
2022/01/16 00:23:47;;;;;;;2.45;0.57;;;;;;;1.32;100.00;99679.20;1742154;81;21592;-65
2022/01/16 00:26:14;;;;;;;3.25;0.70;;;;;;;1.32;100.00;99683.74;1743496;82;21045;-65
2022/01/16 00:28:40;;;;;;;2.67;0.50;;;;;;;1.34;100.00;99690.56;1712811;83;21655;-66
2022/01/16 00:31:06;;;;;;;3.10;0.70;;;;;;;1.34;100.00;99697.78;1714857;83;21050;-65
2022/01/16 00:33:33;;;;;;;2.22;0.60;;;;;;;1.35;100.00;99692.19;1693134;83;21099;-65
2022/01/16 00:35:59;;;;;;;;;;;;;;;1.37;100.00;99681.27;1714078;83;21105;-65
2022/01/16 00:38:25;;;;;;;2.12;0.50;;;;;;;1.35;100.00;99663.20;1716256;83;20400;-65
2022/01/16 00:40:52;;;;;;;2.35;0.62;;;;;;;1.28;100.00;99659.21;1725580;83;21077;-66
2022/01/16 00:43:18;;;;;;;2.47;0.40;;;;;;;1.28;100.00;99663.75;1714402;82;21604;-65
2022/01/16 00:52:58;;;;;;;2.40;0.60;;;;;;;1.30;100.00;99683.15;1796021;79;22922;-64
2022/01/16 00:55:24;;;;;;;1.90;0.50;;;;;;;1.23;100.00;99689.88;1751317;80;21537;-64
2022/01/16 00:57:51;;;;;;;2.25;0.50;;;;;;;1.24;100.00;99682.67;1704230;82;21049;-64
2022/01/16 01:00:17;;;;;;;3.52;0.53;;;;;;;1.26;100.00;99673.87;1710527;83;21038;-64
2022/01/16 01:02:44;;;;;;;3.55;0.80;;;;;;;1.25;100.00;99656.96;1698672;84;21070;-64
2022/01/16 01:05:10;;;;;;;2.08;0.60;;;;;;;1.27;100.00;99637.98;1707767;84;21497;-64
2022/01/16 01:07:38;;;;;;;;;;;;;;;1.23;100.00;99656.36;1698049;84;21094;-64
2022/01/16 01:10:05;;;;;;;;;;;;;;;1.22;100.00;99680.19;1695978;84;20722;-64
2022/01/16 01:12:51;;;;;;;2.22;0.42;;;;;;;1.18;100.00;99689.69;1710079;84;20141;-64
2022/01/16 01:15:10;;;;;;;2.92;0.62;;;;;;;1.13;100.00;99688.69;1706924;84;20998;-64
2022/01/16 01:17:45;;;;;;;2.52;0.55;;;;;;;1.15;100.00;99686.61;1695588;84;21706;-64
2022/01/16 01:20:08;;;;;;;2.92;0.42;;;;;;;1.16;100.00;99662.28;1691205;84;21018;-64
2022/01/16 01:22:34;;;;;;;2.00;0.60;;;;;;;1.17;100.00;99672.48;1661628;84;21054;-64
2022/01/16 01:25:01;;;;;;;2.92;0.55;;;;;;;1.19;100.00;99695.87;1709094;84;21105;-64
2022/01/16 01:27:31;;;;;;;2.47;0.75;;;;;;;1.21;100.00;99698.64;1686096;85;21585;-64
2022/01/16 01:30:02;;;;;;;2.70;0.70;;;;;;;1.21;100.00;99688.43;1708118;83;21093;-66
2022/01/16 01:32:24;;;;;;;1.67;0.60;;;;;;;1.22;100.00;99724.43;1698612;84;21094;-66
2022/01/16 01:34:51;;;;;;;3.45;0.65;;;;;;;1.23;100.00;99699.27;1697363;84;21042;-66
2022/01/16 01:37:17;;;;;;;3.15;0.80;;;;;;;1.25;100.00;99721.83;1702922;84;21086;-65
2022/01/16 01:39:43;;;;;;;4.30;1.20;;;;;;;1.24;100.00;99762.58;1707451;83;21022;-65
2022/01/16 01:42:12;;;;;;;4.67;1.00;;;;;;;1.22;100.00;99702.98;1717058;83;21117;-65
2022/01/16 01:52:57;;;;;;;4.15;1.05;;;;;;;1.13;100.00;99571.55;1717602;83;21638;-64
2022/01/16 01:55:24;;;;;;;3.50;0.90;;;;;;;1.09;100.00;99594.97;1712158;83;21081;-65
2022/01/16 01:57:51;;;;;;;3.90;1.37;;;;;;;1.07;100.00;99597.85;1700725;83;21093;-64
2022/01/16 02:00:18;;;;;;;3.40;1.17;;;;;;;1.05;100.00;99618.70;1713589;83;21058;-65
2022/01/16 02:03:42;;;;;;;3.35;1.15;;;;;;;1.05;100.00;99656.75;1702990;83;21239;-64
2022/01/16 02:05:16;;;;;;;7.47;1.55;;;;;;;1.03;100.00;99663.64;1689403;83;21041;-66
2022/01/16 02:07:42;;;;;;;3.75;1.17;;;;;;;1.03;100.00;99662.30;1722226;83;21093;-65
2022/01/16 02:10:09;;;;;;;3.90;0.93;;;;;;;0.99;100.00;99667.27;1725274;83;21042;-66
2022/01/16 02:12:38;;;;;;;;;;;;;;;1.01;100.00;99689.86;1709211;83;21517;-66
2022/01/16 02:15:29;;;;;;;3.27;1.00;;;;;;;1.01;100.00;99687.17;1700077;83;20421;-66
2022/01/16 02:36:29;;;;;;;4.20;1.30;;;;;;;0.91;100.00;99701.54;1706210;83;21006;-65
2022/01/16 02:39:06;;;;;;;3.47;1.12;;;;;;;0.91;100.00;99706.39;1708329;83;21125;-66
2022/01/16 02:41:32;;;;;;;5.20;1.25;;;;;;;0.92;100.00;99718.73;1724326;83;21053;-66
2022/01/16 02:43:58;;;;;;;3.17;1.30;;;;;;;0.93;100.00;99733.79;1719847;83;21022;-66
2022/01/16 02:48:54;;;;;;;4.10;1.20;;;;;;;0.96;100.00;99737.38;1702222;83;20439;-65
2022/01/16 02:51:23;;;;;;;;;;;;;;;0.90;100.00;99740.91;1706734;83;21073;-66
2022/01/16 02:53:50;;;;;;;3.17;1.07;;;;;;;0.91;100.00;99733.70;1676417;84;20144;-66
2022/01/16 02:56:17;;;;;;;3.45;1.10;;;;;;;0.85;100.00;99730.53;1692775;84;21541;-65
2022/01/16 02:58:44;;;;;;;6.97;1.40;;;;;;;0.87;100.00;99733.30;1691641;83;21110;-65
2022/01/16 03:01:11;;;;;;;;;;;;;;;0.88;100.00;99734.13;1719312;82;21579;-65
2022/01/16 03:03:39;;;;;;;3.72;1.10;;;;;;;0.90;100.00;99743.59;1718789;82;20114;-65
2022/01/16 03:06:05;;;;;;;3.85;1.27;;;;;;;0.85;100.00;99737.23;1710707;82;21019;-65
2022/01/16 03:08:32;;;;;;;3.00;0.75;;;;;;;0.87;100.00;99735.14;1710119;82;21103;-64
2022/01/16 03:13:28;;;;;;;3.55;0.98;;;;;;;0.92;100.00;99752.23;1735467;82;21020;-65
2022/01/16 03:15:55;;;;;;;2.25;0.78;;;;;;;0.96;100.00;99748.63;1737090;82;21475;-65
2022/01/16 03:23:20;;;;;;;4.25;1.07;;;;;;;0.97;100.00;99750.28;1767696;80;21608;-65
2022/01/16 03:25:48;;;;;;;3.27;1.10;;;;;;;0.93;100.00;99747.19;1753882;82;21565;-65
2022/01/16 03:28:14;;;;;;;4.08;1.20;;;;;;;0.94;100.00;99752.87;1756437;80;21488;-66
2022/01/16 03:30:41;;;;;;;4.12;1.02;;;;;;;0.94;100.00;99754.20;1756770;81;20982;-66
2022/01/16 03:33:07;;;;;;;3.05;1.20;;;;;;;0.96;100.00;99750.79;1756286;80;21050;-65
2022/01/16 03:35:34;;;;;;;5.67;1.10;;;;;;;0.94;100.00;99753.38;1756589;82;21003;-66
2022/01/16 03:38:00;;;;;;;3.90;1.20;;;;;;;0.95;100.00;99757.20;1752780;81;21513;-66
2022/01/16 03:40:27;;;;;;;5.17;1.10;;;;;;;0.93;100.00;99763.27;1756283;81;21003;-66
2022/01/16 03:42:53;;;;;;;3.92;1.32;;;;;;;0.96;100.00;99768.20;1756502;80;21026;-66
2022/01/16 03:45:19;;;;;;;2.83;1.00;;;;;;;0.94;100.00;99766.27;1756260;81;21658;-66
2022/01/16 03:47:46;;;;;;;4.65;0.70;;;;;;;0.96;100.00;99774.08;1756263;80;21110;-65
2022/01/16 03:50:12;;;;;;;4.17;0.98;;;;;;;0.94;100.00;99764.92;1756354;82;21870;-66
2022/01/16 03:52:39;;;;;;;2.72;0.60;;;;;;;0.94;100.00;99768.95;1756761;80;21086;-66
2022/01/16 03:55:07;;;;;;;4.87;0.90;;;;;;;0.95;100.00;99764.41;1756270;82;21022;-65
2022/01/16 03:57:34;;;;;;;4.25;0.88;;;;;;;0.95;100.00;99768.44;1756264;80;21567;-65
2022/01/16 04:00:00;;;;;;;;;;;;;;;0.94;100.00;99771.63;1755856;82;21442;-65
2022/01/16 04:02:27;;;;;;;4.12;0.80;;;;;;;0.97;100.00;99769.04;1756557;80;20134;-66
2022/01/16 04:04:55;;;;;;;3.60;0.95;;;;;;;0.88;100.00;99768.45;1756060;82;21030;-65
2022/01/16 04:07:27;;;;;;;5.15;1.00;;;;;;;0.89;100.00;99767.91;1754690;80;21683;-65
2022/01/16 04:09:50;;;;;;;5.15;1.20;;;;;;;0.90;100.00;99764.20;1755851;81;21508;-66
2022/01/16 04:12:21;;;;;;;3.90;1.30;;;;;;;0.91;100.00;99765.86;1756594;80;20979;-65
2022/01/16 04:17:18;;;;;;;3.95;1.12;;;;;;;0.89;100.00;99759.87;1756484;82;21046;-66
2022/01/16 04:19:44;;;;;;;4.30;0.95;;;;;;;0.87;100.00;99769.98;1748284;82;21578;-67
2022/01/16 04:22:11;;;;;;;3.77;1.22;;;;;;;0.86;100.00;99765.65;1743633;82;21011;-65
2022/01/16 04:24:37;;;;;;;4.62;1.00;;;;;;;0.86;100.00;99773.69;1743236;82;21083;-66
2022/01/16 04:27:05;;;;;;;4.97;0.98;;;;;;;0.86;100.00;99773.69;1743443;82;21506;-65
2022/01/16 04:29:31;;;;;;;3.30;1.07;;;;;;;0.85;100.00;99774.20;1743092;81;21083;-65
2022/01/16 04:31:58;;;;;;;7.65;1.30;;;;;;;0.83;100.00;99772.27;1739738;82;21541;-65
2022/01/16 04:34:24;;;;;;;3.30;0.90;;;;;;;0.82;100.00;99777.30;1742343;81;21111;-65
2022/01/16 04:36:50;;;;;;;3.42;1.00;;;;;;;0.79;100.00;99773.70;1742681;82;21039;-66
2022/01/16 04:39:19;;;;;;;4.42;0.90;;;;;;;0.79;100.00;99772.87;1742954;81;21055;-66
2022/01/16 04:44:30;;;;;;;3.15;0.95;;;;;;;0.79;100.00;99774.21;1742838;81;21036;-65
2022/01/16 04:46:57;;;;;;;4.53;1.00;;;;;;;0.78;100.00;99773.39;1743184;82;21588;-66
2022/01/16 04:49:23;;;;;;;3.65;0.98;;;;;;;0.79;100.00;99780.40;1742856;81;21067;-66
2022/01/16 04:51:50;;;;;;;4.50;1.00;;;;;;;0.79;100.00;99782.25;1743165;82;21049;-66
2022/01/16 04:54:16;;;;;;;3.40;1.17;;;;;;;0.79;100.00;99780.40;1742951;81;21090;-65
2022/01/16 04:56:42;;;;;;;2.80;1.00;;;;;;;0.80;100.00;99763.81;1742722;82;20995;-66
2022/01/16 04:59:08;;;;;;;5.25;0.90;;;;;;;0.80;100.00;99787.93;1742862;81;21071;-66
2022/01/16 05:01:35;;;;;;;4.22;0.90;;;;;;;0.81;100.00;99793.61;1743072;82;21502;-65
2022/01/16 05:04:02;;;;;;;4.50;1.07;;;;;;;0.81;100.00;99796.28;1742584;81;21082;-66
2022/01/16 05:06:29;;;;;;;3.98;1.10;;;;;;;0.83;100.00;99799.57;1742994;82;21550;-66
2022/01/16 05:08:55;;;;;;;3.35;1.02;;;;;;;0.79;100.00;99799.67;1742601;81;21058;-66
2022/01/16 05:11:25;;;;;;;3.83;0.85;;;;;;;0.79;100.00;99807.71;1742979;82;21668;-65
2022/01/16 05:19:14;;;;;;;4.20;0.82;;;;;;;0.77;100.00;99803.92;1741015;81;23098;-66
2022/01/16 05:21:42;;;;;;;4.33;1.15;;;;;;;0.76;100.00;99808.95;1740764;82;20995;-65
2022/01/16 05:24:10;;;;;;;3.22;0.82;;;;;;;0.73;100.00;99805.36;1731478;82;21011;-66
2022/01/16 05:26:43;;;;;;;4.17;1.10;;;;;;;0.73;100.00;99807.20;1741200;82;21459;-65
2022/01/16 05:29:10;;;;;;;3.72;1.20;;;;;;;0.72;100.00;99816.27;1740855;81;21621;-65
2022/01/16 05:31:37;;;;;;;3.77;1.02;;;;;;;0.70;100.00;99810.30;1739797;82;20980;-66
2022/01/16 05:34:03;;;;;;;;;;;;;;;0.67;100.00;99811.55;1742700;81;21039;-65
2022/01/16 05:36:30;;;;;;;4.45;1.10;;;;;;;0.65;100.00;99818.95;1741197;82;20122;-65
2022/01/16 05:38:56;;;;;;;4.92;1.20;;;;;;;0.61;100.00;99812.34;1740917;81;21538;-65
2022/01/16 05:41:23;;;;;;;3.70;1.02;;;;;;;0.57;100.00;99811.65;1740093;82;21429;-65
2022/01/16 05:43:49;;;;;;;4.22;1.20;;;;;;;0.61;100.00;99817.70;1741039;81;21571;-65
2022/01/16 05:46:16;;;;;;;7.78;1.35;;;;;;;0.61;100.00;99823.58;1741250;82;21042;-66
2022/01/16 05:48:44;;;;;;;3.72;1.30;;;;;;;0.56;100.00;99816.17;1740909;81;21518;-65
2022/01/16 05:51:10;;;;;;;3.45;1.42;;;;;;;0.56;100.00;99814.84;1739521;82;21022;-66
2022/01/16 05:53:37;;;;;;;3.83;1.22;;;;;;;0.58;100.00;99817.30;1740881;81;21047;-66
2022/01/16 05:56:05;;;;;;;4.28;1.40;;;;;;;0.58;100.00;99811.94;1736986;82;21106;-65
2022/01/16 05:58:31;;;;;;;5.03;1.42;;;;;;;0.59;100.00;99814.93;1740745;81;21059;-66
2022/01/16 06:00:57;;;;;;;6.92;1.57;;;;;;;0.55;100.00;99823.89;1740114;82;20996;-66
2022/01/16 06:03:24;;;;;;;3.52;1.25;;;;;;;0.57;100.00;99824.50;1738784;81;21030;-66
2022/01/16 06:05:50;;;;;;;3.72;1.40;;;;;;;0.55;100.00;99825.23;1740672;82;21046;-66
2022/01/16 06:08:17;;;;;;;4.15;1.67;;;;;;;0.56;100.00;99822.05;1739944;81;21063;-65
2022/01/16 06:10:43;;;;;;;4.05;1.32;;;;;;;0.55;100.00;99828.42;1740975;82;21518;-65
2022/01/16 06:13:10;;;;;;;5.20;1.50;;;;;;;0.54;100.00;99832.13;1740803;81;21070;-65
2022/01/16 06:15:36;;;;;;;2.85;1.02;;;;;;;0.54;100.00;99836.14;1741355;82;21506;-65
2022/01/16 06:18:03;;;;;;;3.10;1.05;;;;;;;0.55;100.00;99840.47;1740868;81;21039;-66
2022/01/16 06:20:30;;;;;;;4.72;1.30;;;;;;;0.55;100.00;99843.16;1740975;82;21058;-65
2022/01/16 06:22:56;;;;;;;5.25;1.15;;;;;;;0.53;100.00;99843.38;1742695;81;21046;-66
2022/01/16 06:25:23;;;;;;;2.90;1.00;;;;;;;0.54;100.00;99844.17;1743008;82;21542;-65
2022/01/16 06:27:50;;;;;;;6.97;1.15;;;;;;;0.54;100.00;99845.00;1734502;82;21096;-65
2022/01/16 06:30:16;;;;;;;3.47;1.07;;;;;;;0.57;100.00;99845.13;1727035;82;21058;-65
2022/01/16 06:32:43;;;;;;;3.77;1.20;;;;;;;0.57;100.00;99847.81;1742607;81;21118;-66
2022/01/16 06:35:10;;;;;;;4.42;1.45;;;;;;;0.57;100.00;99849.16;1742875;82;21119;-65
2022/01/16 06:37:37;;;;;;;5.62;1.95;;;;;;;0.58;100.00;99845.42;1742959;81;21043;-65
2022/01/16 06:40:04;;;;;;;4.42;1.72;;;;;;;0.59;100.00;99847.08;1742605;82;21560;-65
2022/01/16 06:42:33;;;;;;;5.28;2.17;;;;;;;0.61;100.00;99857.06;1742606;81;21154;-65
2022/01/16 06:44:59;;;;;;;5.12;2.20;;;;;;;0.61;100.00;99857.89;1742974;82;21494;-65
2022/01/16 06:47:26;;;;;;;6.67;1.55;;;;;;;0.63;100.00;99863.06;1742660;81;21076;-66
2022/01/16 06:49:52;;;;;;;4.40;1.70;;;;;;;0.59;100.00;99861.30;1742560;82;21007;-66
2022/01/16 06:52:18;;;;;;;4.08;1.60;;;;;;;0.59;100.00;99862.64;1743056;81;21019;-65
2022/01/16 06:54:45;;;;;;;7.58;3.00;;;;;;;0.60;100.00;99857.61;1738738;82;21086;-66
2022/01/16 06:57:11;;;;;;;5.05;1.77;;;;;;;0.61;100.00;99861.91;1742460;82;20994;-66
2022/01/16 06:59:39;;;;;;;3.87;1.50;;;;;;;0.63;100.00;99860.38;1742194;82;21691;-66
2022/01/16 07:02:06;;;;;;;4.05;1.12;;;;;;;0.63;100.00;99860.38;1742933;82;21629;-65
2022/01/16 07:04:33;;;;;;;3.80;1.00;;;;;;;0.62;100.00;99865.42;1742549;81;21611;-66
2022/01/16 07:07:01;;;;;;;3.35;1.25;;;;;;;0.63;100.00;99855.02;1743271;82;20967;-65
2022/01/16 07:09:27;;;;;;;2.08;0.85;;;;;;;0.62;100.00;99860.06;1741959;81;21091;-65
2022/01/16 07:11:53;;;;;;;;;;;;;;;0.56;100.00;99868.41;1737593;82;21490;-65
2022/01/16 07:14:20;;;;;;;3.70;0.88;;;;;;;0.63;100.00;99875.11;1742414;81;20362;-65
2022/01/16 07:16:46;;;;;;;2.37;0.93;;;;;;;0.59;100.00;99876.03;1743063;82;21915;-66
2022/01/16 07:19:13;;;;;;;3.87;1.00;;;;;;;0.60;100.00;99883.56;1740113;81;21126;-66
2022/01/16 07:21:39;;;;;;;;;;;;;;;0.61;100.00;99883.85;1750603;82;21541;-66
2022/01/16 07:24:06;;;;;;;7.05;1.32;;;;;;;0.64;100.00;99884.81;1748032;81;20095;-66
2022/01/16 07:26:33;;;;;;;2.95;0.93;;;;;;;0.57;100.00;99884.77;1747629;82;21082;-65
2022/01/16 07:28:59;;;;;;;;;;;;;;;0.58;100.00;99890.96;1750428;81;21117;-65
2022/01/16 07:31:26;;;;;;;4.42;0.90;;;;;;;0.62;100.00;99895.72;1747866;82;20111;-66
2022/01/16 07:33:54;;;;;;;4.35;1.20;;;;;;;0.57;100.00;99902.19;1748313;81;21050;-66
2022/01/16 07:36:21;;;;;;;3.50;1.07;;;;;;;0.61;100.00;99906.11;1744001;82;21060;-65
2022/01/16 07:38:47;;;;;;;4.10;0.80;;;;;;;0.63;100.00;99896.55;1748101;81;21004;-66
2022/01/16 07:41:13;;;;;;;4.15;1.05;;;;;;;0.65;100.00;99902.00;1747467;82;21551;-66
2022/01/16 07:43:39;;;;;;;4.40;1.27;;;;;;;0.64;100.00;99905.70;1748329;81;21035;-65
2022/01/16 07:46:06;;;;;;;2.52;0.82;;;;;;;0.64;100.00;99900.89;1747970;82;21529;-65
2022/01/16 07:48:33;;;;;;;3.40;1.00;;;;;;;0.65;100.00;99894.48;1747409;81;21066;-66
2022/01/16 07:50:59;;;;;;;3.92;1.20;;;;;;;0.69;100.00;99893.87;1738660;82;21616;-66
2022/01/16 07:53:26;;;;;;;2.92;1.07;;;;;;;0.70;100.00;99892.02;1742484;81;21035;-65
2022/01/16 07:55:52;;;;;;;4.12;1.02;;;;;;;0.70;100.00;99886.66;1747277;82;21682;-66
2022/01/16 07:58:19;;;;;;;4.35;1.15;;;;;;;0.72;100.00;99888.09;1746145;81;21182;-65
2022/01/16 08:00:46;;;;;;;3.45;0.88;;;;;;;0.72;100.00;99886.77;1747236;82;21035;-66
2022/01/16 08:03:12;;;;;;;3.65;1.12;;;;;;;0.72;100.00;99885.42;1729095;82;21094;-67
2022/01/16 08:05:39;;;;;;;5.20;1.12;;;;;;;0.72;100.00;99885.42;1745948;82;21107;-66
2022/01/16 08:08:06;;;;;;;4.53;1.37;;;;;;;0.76;100.00;99900.58;1721031;82;21098;-66
2022/01/16 08:10:33;;;;;;;5.55;1.50;;;;;;;0.77;100.00;99891.52;1748120;82;21066;-66
2022/01/16 08:12:59;;;;;;;6.22;1.77;;;;;;;0.79;100.00;99896.14;1744877;81;21026;-66
2022/01/16 08:15:26;;;;;;;5.50;2.02;;;;;;;0.83;100.00;99901.41;1748244;82;21020;-66
2022/01/16 08:17:53;;;;;;;9.90;3.98;;;;;;;0.83;100.00;99896.88;1747981;81;21488;-67
2022/01/16 08:20:19;;;;;;;;;;;;;;;0.84;100.00;99903.89;1748186;82;21026;-65
2022/01/16 08:22:45;;;;;;;7.37;1.80;;;;;;;0.85;100.00;99910.09;1740870;81;20099;-66
2022/01/16 08:25:12;;;;;;;6.00;2.00;;;;;;;0.83;100.00;99892.03;1728600;82;21016;-65
2022/01/16 08:27:38;;;;;;;5.22;1.67;;;;;;;0.82;100.00;99899.75;1732590;81;21590;-66
2022/01/16 08:30:06;;;;;;;5.53;1.57;;;;;;;0.84;100.00;99899.05;1740658;82;21036;-66
2022/01/16 08:32:32;;;;;;;7.03;2.30;;;;;;;0.80;100.00;99905.33;1740933;81;22950;-66
2022/01/16 08:34:59;;;;;;;7.08;2.25;;;;;;;0.80;100.00;99907.18;1741300;82;21027;-65
2022/01/16 08:37:26;;;;;;;6.05;1.90;;;;;;;0.81;100.00;99908.33;1739786;81;20932;-64
2022/01/16 08:39:52;;;;;;;4.70;1.50;;;;;;;0.82;100.00;99911.81;1741379;82;21035;-66
2022/01/16 08:42:18;;;;;;;6.15;1.92;;;;;;;0.83;100.00;99910.28;1741267;81;20995;-66
2022/01/16 08:44:44;;;;;;;6.03;2.12;;;;;;;0.85;100.00;99908.75;1738566;82;20967;-66
2022/01/16 08:47:11;;;;;;;4.50;1.32;;;;;;;0.88;100.00;99907.82;1741310;82;21071;-66
2022/01/16 08:49:37;;;;;;;6.15;3.22;;;;;;;0.89;100.00;99912.64;1739042;81;21739;-66
2022/01/16 08:52:04;;;;;;;6.60;2.47;;;;;;;0.89;100.00;99897.90;1739596;82;21034;-65
2022/01/16 08:54:31;;;;;;;6.22;2.60;;;;;;;0.92;100.00;99894.30;1740848;81;21055;-67
2022/01/16 08:56:57;;;;;;;7.78;3.60;;;;;;;0.93;100.00;99904.50;1741028;82;21502;-66
2022/01/16 08:59:25;;;;;;;6.78;2.87;;;;;;;0.91;100.00;99899.37;1728010;82;21043;-66
2022/01/16 09:01:51;;;;;;;5.65;1.82;;;;;;;0.92;100.00;99895.63;1740629;82;21549;-66
2022/01/16 09:04:18;;;;;;;5.85;2.20;;;;;;;0.89;100.00;99879.97;1737228;81;21051;-66
2022/01/16 09:06:44;;;;;;;6.28;1.92;;;;;;;0.89;100.00;99879.14;1740722;82;21589;-65
2022/01/16 09:09:11;;;;;;;8.53;2.92;;;;;;;0.89;100.00;99881.81;1739978;81;21036;-65
2022/01/16 09:11:38;;;;;;;6.17;2.02;;;;;;;0.89;100.00;99883.98;1737836;82;21051;-66
2022/01/16 09:14:04;;;;;;;;;;;;;;;0.89;100.00;99879.14;1743558;81;21060;-66
2022/01/16 09:16:31;;;;;;;6.33;2.30;;;;;;;0.90;100.00;99877.61;1740894;82;20123;-64
2022/01/16 09:18:57;;;;;;;6.28;2.02;;;;;;;0.85;100.00;99881.41;1741144;81;21550;-66
2022/01/16 09:21:23;;;;;;;4.65;2.20;;;;;;;0.86;100.00;99878.22;1740583;82;21027;-66
2022/01/16 09:23:50;;;;;;;6.15;2.83;;;;;;;0.88;100.00;99881.02;1740751;81;21599;-66
2022/01/16 09:26:17;;;;;;;7.22;2.85;;;;;;;0.94;100.00;99871.31;1733338;82;21056;-67
2022/01/16 09:28:43;;;;;;;5.60;2.30;;;;;;;0.92;100.00;99874.73;1733700;81;21020;-66
2022/01/16 09:31:10;;;;;;;5.60;2.47;;;;;;;0.90;100.00;99872.24;1731909;82;21606;-66
2022/01/16 09:33:36;;;;;;;6.30;1.98;;;;;;;0.87;100.00;99862.45;1729044;81;21106;-66
2022/01/16 09:36:04;;;;;;;4.80;1.98;;;;;;;0.83;100.00;99856.67;1711625;83;20984;-66
2022/01/16 09:38:31;;;;;;;5.05;1.50;;;;;;;0.85;100.00;99853.80;1722882;82;21095;-66
2022/01/16 09:40:58;;;;;;;4.70;1.40;;;;;;;0.83;100.00;99860.70;1738400;82;21530;-65
2022/01/16 09:43:24;;;;;;;3.67;1.50;;;;;;;0.83;100.00;99858.02;1740736;81;21048;-66
2022/01/16 09:45:52;;;;;;;6.12;1.75;;;;;;;0.81;100.00;99842.67;1739982;82;21414;-66
2022/01/16 09:48:18;;;;;;;7.22;1.95;;;;;;;0.78;100.00;99847.08;1740736;81;20999;-66
2022/01/16 09:50:44;;;;;;;3.85;1.10;;;;;;;0.78;100.00;99851.64;1740167;82;21515;-65
2022/01/16 09:53:12;;;;;;;4.17;1.30;;;;;;;0.76;100.00;99846.47;1741065;81;21128;-65
2022/01/16 09:55:39;;;;;;;4.65;1.40;;;;;;;0.77;100.00;99843.28;1740893;82;21037;-66
2022/01/16 09:58:06;;;;;;;5.72;1.80;;;;;;;0.79;100.00;99851.92;1739399;81;21530;-65
2022/01/16 10:00:32;;;;;;;;;;;;;;;0.76;100.00;99848.33;1736203;82;21065;-66
2022/01/16 10:02:59;;;;;;;4.80;1.98;;;;;;;0.81;100.00;99840.50;1731499;81;20105;-66
2022/01/16 10:05:37;;;;;;;6.85;1.82;;;;;;;0.76;100.00;99839.77;1733572;82;21039;-65
2022/01/16 10:08:09;;;;;;;3.10;1.20;;;;;;;0.75;100.00;99842.13;1740168;81;21554;-65
2022/01/16 10:17:12;;;;;;;5.78;1.50;;;;;;;0.72;100.00;99841.20;1817432;78;23066;-66
2022/01/16 10:19:39;;;;;;;9.45;1.72;;;;;;;0.67;100.00;99846.89;1775654;80;20998;-66
2022/01/16 10:22:08;;;;;;;2.90;1.05;;;;;;;0.64;100.00;99839.27;1785714;80;21556;-66
2022/01/16 10:24:36;;;;;;;4.00;1.27;;;;;;;0.65;100.00;99834.19;1789151;80;21097;-67
2022/01/16 10:27:12;;;;;;;6.17;1.15;;;;;;;0.63;100.00;99847.81;1775757;80;21556;-66
2022/01/16 10:29:46;;;;;;;4.92;1.20;;;;;;;0.63;100.00;99849.16;1785877;80;21556;-66
2022/01/16 10:32:25;;;;;;;5.25;1.50;;;;;;;0.63;100.00;99846.98;1789132;80;21011;-66
2022/01/16 10:34:54;;;;;;;5.87;1.12;;;;;;;0.63;100.00;99845.64;1783635;80;21026;-66
2022/01/16 10:37:32;;;;;;;2.72;1.00;;;;;;;0.70;100.00;99840.61;1780398;80;21020;-66
2022/01/16 10:40:14;;;;;;;6.15;1.50;;;;;;;0.76;100.00;99836.27;1787905;80;20959;-66
2022/01/16 10:42:41;;;;;;;3.52;1.15;;;;;;;0.83;100.00;99833.90;1781311;80;21529;-66
2022/01/16 10:45:12;;;;;;;;;;;;;;;0.85;100.00;99826.46;1772756;80;21030;-66
2022/01/16 10:47:47;;;;;;;6.60;2.42;;;;;;;0.90;100.00;99831.21;1779596;80;20407;-66
2022/01/16 10:50:19;;;;;;;9.65;4.22;;;;;;;0.83;100.00;99829.05;1780214;80;20998;-68
2022/01/16 10:52:51;;;;;;;5.67;2.50;;;;;;;0.85;100.00;99824.33;1790419;80;21542;-66
2022/01/16 10:55:18;;;;;;;3.47;1.15;;;;;;;0.88;100.00;99827.93;1787333;80;21644;-65
2022/01/16 10:57:45;;;;;;;8.23;1.80;;;;;;;0.91;100.00;99825.66;1793494;80;21545;-66
2022/01/16 11:00:17;;;;;;;5.17;1.20;;;;;;;0.89;100.00;99822.85;1789801;80;21018;-65
2022/01/16 11:02:47;;;;;;;4.85;1.60;;;;;;;0.86;100.00;99818.74;1787952;79;21386;-65
2022/01/16 11:05:21;;;;;;;6.20;2.17;;;;;;;0.88;100.00;99823.91;1790296;80;21054;-65
2022/01/16 11:08:07;;;;;;;4.60;1.52;;;;;;;0.88;100.00;99825.25;1785279;80;21011;-66
2022/01/16 11:10:42;;;;;;;5.85;1.70;;;;;;;0.90;100.00;99817.81;1790635;80;21094;-66
2022/01/16 11:13:16;;;;;;;5.35;1.87;;;;;;;0.87;100.00;99828.44;1770321;80;21601;-66
2022/01/16 11:15:49;;;;;;;4.40;1.15;;;;;;;0.88;100.00;99819.89;1785918;80;21063;-66
2022/01/16 11:18:16;;;;;;;7.42;2.52;;;;;;;0.88;100.00;99819.89;1785669;79;21102;-67
2022/01/16 11:20:52;;;;;;;5.97;2.72;;;;;;;0.87;100.00;99823.08;1778147;80;21879;-68
2022/01/16 11:23:29;;;;;;;8.13;1.90;;;;;;;0.90;100.00;99809.77;1782315;80;21140;-66
2022/01/16 11:25:45;;;;;;;7.70;2.40;;;;;;;0.91;100.00;99810.91;1770830;80;21420;-66
2022/01/16 11:31:48;;;;;;;8.83;3.20;;;;;;;0.90;100.00;99809.26;1819295;78;22659;-66
2022/01/16 11:34:15;;;;;;;6.97;2.20;;;;;;;0.87;100.00;99812.87;1786932;78;21109;-66
2022/01/16 11:36:41;;;;;;;6.75;2.35;;;;;;;0.90;100.00;99806.58;1766349;80;21042;-67
2022/01/16 11:39:10;;;;;;;6.25;1.85;;;;;;;0.95;100.00;99808.13;1761179;81;21580;-67
2022/01/16 11:41:51;;;;;;;10.32;4.55;;;;;;;0.91;100.00;99798.03;1802030;78;21525;-67
2022/01/16 11:44:27;;;;;;;10.82;3.85;;;;;;;0.87;100.00;99809.67;1783526;78;21034;-67
2022/01/16 11:46:57;;;;;;;14.05;6.08;;;;;;;0.81;100.00;99811.02;1782525;78;21502;-67
2022/01/16 11:49:39;;;;;;;16.17;6.42;;;;;;;0.82;100.00;99801.94;1707169;81;21082;-66
2022/01/16 11:52:11;;;;;;;5.87;2.20;;;;;;;0.80;100.00;99804.01;1725002;81;21028;-66
2022/01/16 11:54:43;;;;;;;6.72;1.87;;;;;;;0.82;100.00;99797.91;1723410;81;21062;-66
2022/01/16 11:57:30;;;;;;;8.85;3.35;;;;;;;0.84;100.00;99797.20;1743963;81;21018;-66
2022/01/16 12:00:11;;;;;;;6.50;2.90;;;;;;;0.80;100.00;99797.31;1762871;81;21578;-66
2022/01/16 12:02:49;;;;;;;7.55;2.12;;;;;;;0.78;100.00;99793.48;1726694;81;21674;-66
2022/01/16 12:05:26;;;;;;;6.75;1.90;;;;;;;0.76;100.00;99787.52;1724027;81;20996;-67
2022/01/16 12:07:55;;;;;;;5.92;2.40;;;;;;;0.74;100.00;99788.77;1739683;82;21139;-67
2022/01/16 12:10:44;;;;;;;7.67;2.58;;;;;;;0.75;100.00;99793.91;1730684;81;21063;-66
2022/01/16 12:13:45;;;;;;;5.95;2.20;;;;;;;0.74;100.00;99794.13;1749902;81;21051;-67
2022/01/16 12:16:35;;;;;;;6.75;2.40;;;;;;;0.68;100.00;99790.40;1745143;81;21034;-68
2022/01/16 12:19:32;;;;;;;8.23;2.92;;;;;;;0.64;100.00;99794.52;1728462;81;21034;-67
2022/01/16 12:21:58;;;;;;;9.43;3.37;;;;;;;0.61;100.00;99794.11;1729030;81;21004;-67
2022/01/16 12:24:50;;;;;;;7.83;2.80;;;;;;;0.58;100.00;99785.98;1716168;83;21037;-68
2022/01/16 12:27:29;;;;;;;8.40;3.42;;;;;;;0.65;100.00;99793.50;1723533;81;21504;-65
2022/01/16 12:30:11;;;;;;;6.53;2.70;;;;;;;0.63;100.00;99786.20;1716645;81;21032;-68
2022/01/16 12:33:11;;;;;;;9.05;3.60;;;;;;;0.65;100.00;99790.81;1717505;83;21473;-68
2022/01/16 12:35:52;;;;;;;8.25;3.40;;;;;;;0.60;100.00;99784.45;1727903;82;21115;-65
2022/01/16 12:38:20;;;;;;;7.67;3.42;;;;;;;0.62;100.00;99787.22;1706185;83;21074;-66
2022/01/16 12:41:00;;;;;;;11.38;4.17;;;;;;;0.57;100.00;99777.63;1698538;83;21088;-66
2022/01/16 12:43:39;;;;;;;10.00;4.65;;;;;;;0.58;100.00;99789.99;1711169;83;21134;-66
2022/01/16 12:46:02;;;;;;;11.88;5.35;;;;;;;0.60;100.00;99791.14;1730778;82;21025;-66
2022/01/16 12:48:28;;;;;;;16.15;6.08;;;;;;;0.56;100.00;99795.26;1732377;80;21112;-66